createdAt,value
2022-08-11T00:04:35.510Z,18.60
2022-08-11T00:14:38.099Z,18.50
2022-08-11T00:24:54.887Z,18.40
2022-08-11T00:35:50.943Z,18.30
2022-08-11T00:45:32.042Z,18.30
2022-08-11T00:56:17.160Z,18.10
2022-08-11T01:07:00.760Z,18.00
2022-08-11T01:17:31.901Z,17.90
2022-08-11T01:28:22.413Z,17.80
2022-08-11T01:38:53.645Z,17.60
2022-08-11T01:50:06.931Z,17.40
2022-08-11T01:59:36.119Z,17.20
2022-08-11T02:10:14.237Z,17.10
2022-08-11T02:20:24.179Z,16.90
2022-08-11T02:30:32.991Z,16.60
2022-08-11T02:40:47.540Z,16.50
2022-08-11T02:50:58.674Z,16.40
2022-08-11T03:01:13.048Z,16.30
2022-08-11T03:11:21.554Z,16.20
2022-08-11T03:22:01.973Z,16.10
2022-08-11T03:31:56.990Z,16.00
2022-08-11T03:42:12.378Z,16.00
2022-08-11T03:52:23.225Z,16.00
2022-08-11T04:02:54.973Z,16.10
2022-08-11T04:13:47.013Z,16.20
2022-08-11T04:24:36.541Z,16.30
2022-08-11T04:34:37.242Z,16.50
2022-08-11T04:45:22.163Z,16.60
2022-08-11T04:55:45.289Z,16.70
2022-08-11T05:06:12.918Z,16.90
2022-08-11T05:16:18.929Z,17.10
2022-08-11T05:26:47.780Z,17.30
2022-08-11T05:36:49.158Z,17.50
2022-08-11T05:46:53.705Z,17.80
2022-08-11T05:56:59.498Z,17.90
2022-08-11T06:07:09.277Z,18.10
2022-08-11T06:17:12.066Z,18.00
2022-08-11T06:27:20.752Z,18.20
2022-08-11T06:37:35.800Z,18.60
2022-08-11T06:47:44.931Z,18.40
2022-08-11T06:57:47.893Z,18.60
2022-08-11T07:08:34.823Z,18.60
2022-08-11T07:18:39.114Z,19.00
2022-08-11T07:28:47.207Z,19.30
2022-08-11T07:38:50.728Z,19.60
2022-08-11T07:48:56.087Z,19.70
2022-08-11T07:59:04.237Z,20.50
2022-08-11T08:09:12.017Z,20.70
2022-08-11T08:19:16.679Z,20.90
2022-08-11T08:29:21.697Z,21.20
2022-08-11T08:39:24.075Z,23.60
2022-08-11T08:49:34.052Z,26.30
2022-08-11T08:59:48.511Z,28.80
2022-08-11T09:09:56.835Z,30.50
2022-08-11T09:20:02.445Z,31.90
2022-08-11T09:30:11.198Z,32.70
2022-08-11T09:40:14.892Z,32.90
2022-08-11T09:50:19.001Z,33.80
2022-08-11T10:00:29.743Z,34.60
2022-08-11T10:10:36.545Z,35.00
2022-08-11T10:20:39.750Z,34.90
2022-08-11T10:30:45.869Z,35.60
2022-08-11T10:40:48.482Z,35.50
2022-08-11T10:50:52.620Z,35.40
2022-08-11T11:00:55.300Z,34.60
2022-08-11T11:11:00.162Z,34.80
2022-08-11T11:21:06.916Z,33.90
2022-08-11T11:31:22.683Z,34.30
2022-08-11T11:41:25.871Z,33.60
2022-08-11T11:51:29.356Z,33.40
2022-08-11T12:01:33.073Z,32.20
2022-08-11T12:11:36.611Z,31.40
2022-08-11T12:21:40.392Z,31.40
2022-08-11T12:31:55.528Z,31.40
2022-08-11T12:41:57.879Z,31.70
2022-08-11T12:52:13.916Z,31.80
2022-08-11T13:02:20.548Z,31.70
2022-08-11T13:12:25.185Z,31.70
2022-08-11T13:22:28.356Z,31.60
2022-08-11T13:32:36.285Z,31.30
2022-08-11T13:42:39.105Z,31.20
2022-08-11T13:52:43.674Z,31.30
2022-08-11T14:02:49.766Z,31.10
2022-08-11T14:12:58.897Z,31.30
2022-08-11T14:23:01.228Z,31.00
2022-08-11T14:33:16.625Z,31.20
2022-08-11T14:43:19.518Z,31.30
2022-08-11T14:53:58.559Z,31.30
2022-08-11T15:04:34.178Z,31.70
2022-08-11T15:14:25.441Z,31.20
2022-08-11T15:24:27.421Z,31.40
2022-08-11T15:34:52.089Z,31.50
2022-08-11T15:45:02.643Z,30.60
2022-08-11T15:55:08.616Z,30.80
2022-08-11T16:05:45.211Z,31.10
2022-08-11T16:15:40.703Z,30.70
2022-08-11T16:27:04.808Z,30.80
2022-08-11T16:36:09.162Z,30.50
2022-08-11T16:46:17.210Z,30.30
2022-08-11T16:56:21.447Z,30.20
2022-08-11T17:06:24.887Z,29.90
2022-08-11T17:16:32.152Z,29.60
2022-08-11T17:26:42.764Z,29.30
2022-08-11T17:36:45.918Z,29.10
2022-08-11T17:46:50.731Z,28.70
2022-08-11T17:56:53.678Z,28.20
2022-08-11T18:06:57.544Z,27.80
2022-08-11T18:17:06.222Z,27.50
2022-08-11T18:27:11.853Z,27.30
2022-08-11T18:37:21.956Z,26.90
2022-08-11T18:47:28.914Z,26.60
2022-08-11T18:57:33.661Z,26.20
2022-08-11T19:07:52.375Z,25.80
2022-08-11T19:17:59.154Z,25.50
2022-08-11T19:28:06.425Z,25.00
2022-08-11T19:38:09.121Z,24.70
2022-08-11T19:48:31.126Z,24.40
2022-08-11T19:58:35.671Z,24.10
2022-08-11T20:08:43.387Z,23.80
2022-08-11T20:18:47.327Z,23.50
2022-08-11T20:28:52.230Z,23.20
2022-08-11T20:38:56.003Z,23.00
2022-08-11T20:49:02.526Z,22.70
2022-08-11T20:59:21.543Z,22.60
2022-08-11T21:09:58.257Z,22.40
2022-08-11T21:20:00.719Z,22.20
2022-08-11T21:30:11.414Z,22.00
2022-08-11T21:40:17.511Z,21.80
2022-08-11T21:50:21.712Z,21.70
2022-08-11T22:00:23.931Z,21.60
2022-08-11T22:10:42.537Z,21.40
2022-08-11T22:20:45.365Z,21.30
2022-08-11T22:30:48.800Z,21.10
2022-08-11T22:40:51.963Z,20.90
2022-08-11T22:50:56.047Z,20.60
2022-08-11T23:00:58.771Z,20.40
2022-08-11T23:11:02.723Z,20.30
2022-08-11T23:21:05.015Z,20.10
2022-08-11T23:31:11.472Z,20.00
2022-08-11T23:41:14.620Z,19.70
2022-08-11T23:51:19.945Z,19.40
